Terminal Aerodrome Forecast
Issued by NWS Portland, OR

Home | Current Version | Previous Version | Text Only | Print | Product List | Glossary On
Versions: 1 2 3 4 5 6 7 8 9 10 11 12 13 14 15 16 17
000
FTUS46 KPQR 211741
TAFAST
TAF
KAST 211741Z 2118/2218 23010G18KT P6SM -SHRA BKN008 OVC030
     FM212000 23013G23KT 6SM -SHRA SCT030 BKN050
     FM220400 23010KT P6SM VCSH BKN060 BKN100
     FM220900 20010KT P6SM -SHRA OVC050=

USA.gov is the U.S. government's official web portal to all federal, state and local government web resources and services.